sensor_id;sensor_type;location;lat;lon;timestamp;pressure;altitude;pressure_sealevel;temperature;humidity
77288;BME280;66345;42.694;23.346;2023-03-12T00:00:01;94647.41;;;3.44;58.86
77288;BME280;66345;42.694;23.346;2023-03-12T00:02:28;94643.47;;;3.32;58.17
77288;BME280;66345;42.694;23.346;2023-03-12T00:04:54;94650.19;;;3.34;58.00
77288;BME280;66345;42.694;23.346;2023-03-12T00:07:19;94661.69;;;3.33;58.27
77288;BME280;66345;42.694;23.346;2023-03-12T00:09:45;94661.34;;;3.37;58.40
77288;BME280;66345;42.694;23.346;2023-03-12T00:12:10;94665.75;;;3.36;57.68
77288;BME280;66345;42.694;23.346;2023-03-12T00:14:49;94668.38;;;3.28;59.22
77288;BME280;66345;42.694;23.346;2023-03-12T00:17:14;94678.41;;;3.32;58.49
77288;BME280;66345;42.694;23.346;2023-03-12T00:19:39;94690.81;;;3.30;58.63
77288;BME280;66345;42.694;23.346;2023-03-12T00:22:05;94683.31;;;3.27;58.33
77288;BME280;66345;42.694;23.346;2023-03-12T00:24:31;94682.50;;;3.27;58.48
77288;BME280;66345;42.694;23.346;2023-03-12T00:26:57;94688.72;;;3.18;58.75
77288;BME280;66345;42.694;23.346;2023-03-12T00:29:22;94694.25;;;3.15;58.91
77288;BME280;66345;42.694;23.346;2023-03-12T00:31:47;94686.75;;;3.20;58.53
77288;BME280;66345;42.694;23.346;2023-03-12T00:34:15;94698.34;;;3.17;58.04
77288;BME280;66345;42.694;23.346;2023-03-12T00:36:40;94704.09;;;3.21;58.92
77288;BME280;66345;42.694;23.346;2023-03-12T00:39:06;94692.31;;;3.33;58.54
77288;BME280;66345;42.694;23.346;2023-03-12T00:41:32;94697.72;;;3.23;58.04
77288;BME280;66345;42.694;23.346;2023-03-12T00:43:57;94702.78;;;3.25;58.19
77288;BME280;66345;42.694;23.346;2023-03-12T00:46:23;94696.59;;;3.18;58.31
77288;BME280;66345;42.694;23.346;2023-03-12T00:48:49;94700.03;;;3.18;58.08
77288;BME280;66345;42.694;23.346;2023-03-12T00:51:14;94705.09;;;3.12;58.21
77288;BME280;66345;42.694;23.346;2023-03-12T00:53:40;94704.09;;;3.21;58.86
77288;BME280;66345;42.694;23.346;2023-03-12T00:56:05;94699.03;;;3.11;59.18
77288;BME280;66345;42.694;23.346;2023-03-12T00:58:31;94709.81;;;3.16;59.92
77288;BME280;66345;42.694;23.346;2023-03-12T01:00:56;94705.75;;;3.14;59.33
77288;BME280;66345;42.694;23.346;2023-03-12T01:03:22;94707.72;;;3.12;59.66
77288;BME280;66345;42.694;23.346;2023-03-12T01:05:47;94710.00;;;3.15;59.46
77288;BME280;66345;42.694;23.346;2023-03-12T01:08:18;94714.75;;;3.11;59.71
77288;BME280;66345;42.694;23.346;2023-03-12T01:10:44;94713.06;;;3.02;59.18
77288;BME280;66345;42.694;23.346;2023-03-12T01:13:09;94708.81;;;2.93;59.01
77288;BME280;66345;42.694;23.346;2023-03-12T01:15:35;94708.16;;;2.91;59.21
77288;BME280;66345;42.694;23.346;2023-03-12T01:18:00;94712.75;;;2.97;59.88
77288;BME280;66345;42.694;23.346;2023-03-12T01:20:26;94721.75;;;2.94;59.72
77288;BME280;66345;42.694;23.346;2023-03-12T01:22:51;94730.59;;;2.93;59.31
77288;BME280;66345;42.694;23.346;2023-03-12T01:25:17;94731.41;;;2.86;60.15
77288;BME280;66345;42.694;23.346;2023-03-12T01:27:42;94732.22;;;2.86;60.13
77288;BME280;66345;42.694;23.346;2023-03-12T01:30:09;94731.53;;;2.76;59.21
77288;BME280;66345;42.694;23.346;2023-03-12T01:32:35;94733.81;;;2.71;59.49
77288;BME280;66345;42.694;23.346;2023-03-12T01:35:00;94719.44;;;2.75;59.17
77288;BME280;66345;42.694;23.346;2023-03-12T01:37:26;94725.66;;;2.82;59.53
77288;BME280;66345;42.694;23.346;2023-03-12T01:39:52;94728.09;;;2.75;58.67
77288;BME280;66345;42.694;23.346;2023-03-12T01:42:17;94725.00;;;2.80;59.57
77288;BME280;66345;42.694;23.346;2023-03-12T01:47:20;94721.88;;;2.68;60.08
77288;BME280;66345;42.694;23.346;2023-03-12T01:49:49;94729.91;;;2.75;59.99
77288;BME280;66345;42.694;23.346;2023-03-12T01:52:35;94725.84;;;2.81;58.97
77288;BME280;66345;42.694;23.346;2023-03-12T01:55:12;94725.13;;;2.70;59.38
77288;BME280;66345;42.694;23.346;2023-03-12T01:57:48;94726.63;;;2.65;60.49
77288;BME280;66345;42.694;23.346;2023-03-12T02:00:17;94731.41;;;2.86;60.32
77288;BME280;66345;42.694;23.346;2023-03-12T02:02:45;94736.97;;;2.91;59.53
77288;BME280;66345;42.694;23.346;2023-03-12T02:05:24;94732.19;;;2.78;59.68
77288;BME280;66345;42.694;23.346;2023-03-12T02:07:53;94736.66;;;2.94;60.50
77288;BME280;66345;42.694;23.346;2023-03-12T02:10:20;94751.25;;;2.96;59.71
77288;BME280;66345;42.694;23.346;2023-03-12T02:12:45;94743.88;;;3.00;59.68
77288;BME280;66345;42.694;23.346;2023-03-12T02:15:11;94750.09;;;2.99;59.36
77288;BME280;66345;42.694;23.346;2023-03-12T02:17:37;94742.66;;;2.78;59.78
77288;BME280;66345;42.694;23.346;2023-03-12T02:20:44;94749.69;;;2.69;58.90
77288;BME280;66345;42.694;23.346;2023-03-12T02:25:53;94754.47;;;2.74;58.97
77288;BME280;66345;42.694;23.346;2023-03-12T02:28:22;94752.47;;;2.68;59.35
77288;BME280;66345;42.694;23.346;2023-03-12T02:30:53;94758.69;;;2.67;59.30
77288;BME280;66345;42.694;23.346;2023-03-12T02:33:22;94758.50;;;2.60;60.25
77288;BME280;66345;42.694;23.346;2023-03-12T02:35:47;94764.88;;;2.58;59.34
77288;BME280;66345;42.694;23.346;2023-03-12T02:41:11;94761.59;;;2.56;60.06
77288;BME280;66345;42.694;23.346;2023-03-12T02:43:38;94762.25;;;2.49;59.91
77288;BME280;66345;42.694;23.346;2023-03-12T02:46:04;94769.59;;;2.54;59.54
77288;BME280;66345;42.694;23.346;2023-03-12T02:48:30;94755.34;;;2.48;60.55
77288;BME280;66345;42.694;23.346;2023-03-12T02:50:55;94756.31;;;2.47;60.65
77288;BME280;66345;42.694;23.346;2023-03-12T02:53:20;94760.91;;;2.45;60.51
77288;BME280;66345;42.694;23.346;2023-03-12T02:55:46;94762.53;;;2.46;61.40
77288;BME280;66345;42.694;23.346;2023-03-12T02:58:11;94752.34;;;2.35;60.32
77288;BME280;66345;42.694;23.346;2023-03-12T03:00:37;94751.22;;;2.38;61.58
77288;BME280;66345;42.694;23.346;2023-03-12T03:03:02;94749.53;;;2.29;61.49
77288;BME280;66345;42.694;23.346;2023-03-12T03:05:28;94739.25;;;2.35;61.45
77288;BME280;66345;42.694;23.346;2023-03-12T03:07:53;94742.22;;;2.40;62.00
77288;BME280;66345;42.694;23.346;2023-03-12T03:10:19;94742.66;;;2.28;61.82
77288;BME280;66345;42.694;23.346;2023-03-12T03:12:44;94739.06;;;2.29;61.73
77288;BME280;66345;42.694;23.346;2023-03-12T03:15:10;94734.31;;;2.32;62.23
77288;BME280;66345;42.694;23.346;2023-03-12T03:17:37;94741.00;;;2.27;61.08
77288;BME280;66345;42.694;23.346;2023-03-12T03:20:04;94753.94;;;2.28;62.14
77288;BME280;66345;42.694;23.346;2023-03-12T03:22:35;94758.81;;;2.23;61.75
77288;BME280;66345;42.694;23.346;2023-03-12T03:25:01;94780.13;;;2.28;61.69
77288;BME280;66345;42.694;23.346;2023-03-12T03:27:27;94776.81;;;2.26;61.71
77288;BME280;66345;42.694;23.346;2023-03-12T03:29:52;94775.81;;;2.19;62.28
77288;BME280;66345;42.694;23.346;2023-03-12T03:32:18;94781.94;;;2.28;61.37
77288;BME280;66345;42.694;23.346;2023-03-12T03:34:44;94774.69;;;2.21;62.27
77288;BME280;66345;42.694;23.346;2023-03-12T03:37:09;94777.31;;;2.21;62.13
77288;BME280;66345;42.694;23.346;2023-03-12T03:39:35;94776.94;;;2.16;62.01
77288;BME280;66345;42.694;23.346;2023-03-12T03:42:01;94785.31;;;2.20;62.53
77288;BME280;66345;42.694;23.346;2023-03-12T03:44:26;94783.47;;;2.12;62.35
77288;BME280;66345;42.694;23.346;2023-03-12T03:46:52;94791.81;;;2.16;61.89
77288;BME280;66345;42.694;23.346;2023-03-12T03:49:19;94791.22;;;2.22;61.67
77288;BME280;66345;42.694;23.346;2023-03-12T03:51:44;94800.88;;;2.21;61.76
77288;BME280;66345;42.694;23.346;2023-03-12T03:54:11;94802.03;;;2.27;62.30
77288;BME280;66345;42.694;23.346;2023-03-12T03:56:36;94792.03;;;2.22;61.49
77288;BME280;66345;42.694;23.346;2023-03-12T03:59:02;94795.88;;;2.10;60.94
77288;BME280;66345;42.694;23.346;2023-03-12T04:01:28;94796.06;;;2.17;60.81
77288;BME280;66345;42.694;23.346;2023-03-12T04:03:55;94795.59;;;2.13;61.86
77288;BME280;66345;42.694;23.346;2023-03-12T04:06:21;94798.81;;;2.07;61.37
77288;BME280;66345;42.694;23.346;2023-03-12T04:08:46;94810.31;;;2.14;60.55
77288;BME280;66345;42.694;23.346;2023-03-12T04:11:14;94810.09;;;2.08;60.54
77288;BME280;66345;42.694;23.346;2023-03-12T04:13:40;94808.63;;;2.05;60.20
77288;BME280;66345;42.694;23.346;2023-03-12T04:16:06;94818.25;;;2.05;59.64
77288;BME280;66345;42.694;23.346;2023-03-12T04:18:31;94810.53;;;2.03;59.42
77288;BME280;66345;42.694;23.346;2023-03-12T04:20:57;94827.06;;;2.04;58.60
77288;BME280;66345;42.694;23.346;2023-03-12T04:23:22;94832.75;;;1.99;58.46
77288;BME280;66345;42.694;23.346;2023-03-12T04:25:47;94833.69;;;1.90;58.98
77288;BME280;66345;42.694;23.346;2023-03-12T04:28:13;94836.19;;;2.00;58.02
77288;BME280;66345;42.694;23.346;2023-03-12T04:30:38;94837.78;;;1.92;57.47
77288;BME280;66345;42.694;23.346;2023-03-12T04:33:05;94848.84;;;1.86;57.77
77288;BME280;66345;42.694;23.346;2023-03-12T04:35:31;94853.56;;;1.83;57.43
77288;BME280;66345;42.694;23.346;2023-03-12T04:37:56;94852.66;;;1.92;58.02
77288;BME280;66345;42.694;23.346;2023-03-12T04:40:22;94864.38;;;1.88;56.71
77288;BME280;66345;42.694;23.346;2023-03-12T04:42:47;94859.25;;;1.78;57.49
77288;BME280;66345;42.694;23.346;2023-03-12T04:45:13;94867.09;;;1.78;56.80
77288;BME280;66345;42.694;23.346;2023-03-12T04:47:39;94871.06;;;1.82;56.92
77288;BME280;66345;42.694;23.346;2023-03-12T04:50:05;94872.16;;;1.80;56.89
77288;BME280;66345;42.694;23.346;2023-03-12T04:52:30;94882.94;;;1.77;57.45
77288;BME280;66345;42.694;23.346;2023-03-12T04:54:56;94878.69;;;1.76;57.29
77288;BME280;66345;42.694;23.346;2023-03-12T04:57:23;94889.31;;;1.74;57.50
77288;BME280;66345;42.694;23.346;2023-03-12T04:59:49;94876.41;;;1.81;57.52
77288;BME280;66345;42.694;23.346;2023-03-12T05:02:14;94890.03;;;1.84;57.35
77288;BME280;66345;42.694;23.346;2023-03-12T05:04:40;94897.50;;;1.79;57.15
77288;BME280;66345;42.694;23.346;2023-03-12T05:07:05;94910.56;;;1.79;57.08
77288;BME280;66345;42.694;23.346;2023-03-12T05:09:31;94893.78;;;1.82;56.79
77288;BME280;66345;42.694;23.346;2023-03-12T05:11:56;94909.38;;;1.91;56.98
77288;BME280;66345;42.694;23.346;2023-03-12T05:14:22;94909.97;;;1.85;57.08
77288;BME280;66345;42.694;23.346;2023-03-12T05:16:47;94919.53;;;1.94;56.84
77288;BME280;66345;42.694;23.346;2023-03-12T05:19:13;94918.34;;;1.89;57.16
77288;BME280;66345;42.694;23.346;2023-03-12T05:21:40;94915.50;;;2.00;57.37
77288;BME280;66345;42.694;23.346;2023-03-12T05:24:07;94929.09;;;2.04;57.33
77288;BME280;66345;42.694;23.346;2023-03-12T05:26:33;94924.03;;;1.84;56.62
77288;BME280;66345;42.694;23.346;2023-03-12T05:28:59;94923.72;;;1.87;57.96
77288;BME280;66345;42.694;23.346;2023-03-12T05:31:26;94932.63;;;1.94;57.58
77288;BME280;66345;42.694;23.346;2023-03-12T05:33:53;94928.69;;;1.90;57.05
77288;BME280;66345;42.694;23.346;2023-03-12T05:36:19;94931.38;;;1.99;57.25
77288;BME280;66345;42.694;23.346;2023-03-12T05:38:45;94941.53;;;2.02;57.15
77288;BME280;66345;42.694;23.346;2023-03-12T05:41:24;94935.69;;;2.08;57.40
77288;BME280;66345;42.694;23.346;2023-03-12T05:43:52;94956.47;;;2.09;56.93
77288;BME280;66345;42.694;23.346;2023-03-12T05:46:18;94957.28;;;2.10;56.76
77288;BME280;66345;42.694;23.346;2023-03-12T05:48:45;94952.13;;;2.18;55.93
77288;BME280;66345;42.694;23.346;2023-03-12T05:51:10;94950.25;;;2.28;55.56
77288;BME280;66345;42.694;23.346;2023-03-12T05:53:36;94954.22;;;2.32;54.55
77288;BME280;66345;42.694;23.346;2023-03-12T05:56:06;94961.91;;;2.52;55.07
77288;BME280;66345;42.694;23.346;2023-03-12T05:58:33;94965.84;;;2.56;54.08
77288;BME280;66345;42.694;23.346;2023-03-12T06:00:59;94967.91;;;2.70;53.15
77288;BME280;66345;42.694;23.346;2023-03-12T06:03:24;94982.09;;;2.85;52.95
77288;BME280;66345;42.694;23.346;2023-03-12T06:05:50;94983.31;;;2.99;52.91
77288;BME280;66345;42.694;23.346;2023-03-12T06:08:20;94981.41;;;3.35;50.51
77288;BME280;66345;42.694;23.346;2023-03-12T06:10:49;94978.00;;;3.93;48.61
77288;BME280;66345;42.694;23.346;2023-03-12T06:13:15;94976.47;;;3.82;48.29
77288;BME280;66345;42.694;23.346;2023-03-12T06:15:41;94980.81;;;4.97;45.35
77288;BME280;66345;42.694;23.346;2023-03-12T06:18:06;94978.78;;;5.71;43.53
77288;BME280;66345;42.694;23.346;2023-03-12T06:20:32;94995.41;;;5.72;41.62
77288;BME280;66345;42.694;23.346;2023-03-12T06:22:57;94991.81;;;6.58;40.95
77288;BME280;66345;42.694;23.346;2023-03-12T06:25:23;94984.94;;;8.49;36.96
77288;BME280;66345;42.694;23.346;2023-03-12T06:27:48;94996.53;;;8.69;35.72
77288;BME280;66345;42.694;23.346;2023-03-12T06:30:14;94999.53;;;8.87;35.37
77288;BME280;66345;42.694;23.346;2023-03-12T06:32:39;95013.28;;;7.89;37.09
77288;BME280;66345;42.694;23.346;2023-03-12T06:35:05;95013.19;;;7.68;37.11
77288;BME280;66345;42.694;23.346;2023-03-12T06:37:30;95016.94;;;7.88;36.76
77288;BME280;66345;42.694;23.346;2023-03-12T06:39:56;95010.06;;;8.81;35.82
77288;BME280;66345;42.694;23.346;2023-03-12T06:42:22;95006.53;;;9.51;34.64
77288;BME280;66345;42.694;23.346;2023-03-12T06:44:48;95015.81;;;9.12;34.40
77288;BME280;66345;42.694;23.346;2023-03-12T06:47:14;95018.06;;;9.09;34.57
77288;BME280;66345;42.694;23.346;2023-03-12T06:49:39;95036.53;;;8.45;35.88
77288;BME280;66345;42.694;23.346;2023-03-12T06:52:05;95036.81;;;8.50;35.08
77288;BME280;66345;42.694;23.346;2023-03-12T06:54:30;95033.25;;;8.79;33.63
77288;BME280;66345;42.694;23.346;2023-03-12T06:56:56;95035.81;;;8.72;33.82
77288;BME280;66345;42.694;23.346;2023-03-12T06:59:24;95039.03;;;9.10;33.53
77288;BME280;66345;42.694;23.346;2023-03-12T07:01:49;95043.50;;;8.88;34.20
77288;BME280;66345;42.694;23.346;2023-03-12T07:04:14;95045.81;;;8.98;33.20
77288;BME280;66345;42.694;23.346;2023-03-12T07:06:40;95039.63;;;9.62;31.69
77288;BME280;66345;42.694;23.346;2023-03-12T07:09:06;95060.41;;;9.37;32.29
77288;BME280;66345;42.694;23.346;2023-03-12T07:11:32;95057.09;;;9.84;31.91
77288;BME280;66345;42.694;23.346;2023-03-12T07:13:57;95048.81;;;10.96;30.12
77288;BME280;66345;42.694;23.346;2023-03-12T07:16:23;95063.16;;;11.42;29.72
77288;BME280;66345;42.694;23.346;2023-03-12T07:18:48;95073.69;;;10.89;29.30
77288;BME280;66345;42.694;23.346;2023-03-12T07:21:14;95068.56;;;10.87;30.01
77288;BME280;66345;42.694;23.346;2023-03-12T07:23:48;95071.38;;;12.38;28.32
77288;BME280;66345;42.694;23.346;2023-03-12T07:26:16;95067.41;;;11.23;29.46
77288;BME280;66345;42.694;23.346;2023-03-12T07:28:42;95079.81;;;11.02;29.40
77288;BME280;66345;42.694;23.346;2023-03-12T07:31:07;95092.25;;;10.34;31.01
77288;BME280;66345;42.694;23.346;2023-03-12T07:33:33;95089.53;;;10.62;31.02
77288;BME280;66345;42.694;23.346;2023-03-12T07:35:59;95078.19;;;12.78;28.49
77288;BME280;66345;42.694;23.346;2023-03-12T07:38:25;95074.63;;;13.29;27.63
77288;BME280;66345;42.694;23.346;2023-03-12T07:40:54;95080.50;;;13.70;26.18
77288;BME280;66345;42.694;23.346;2023-03-12T07:43:20;95081.56;;;13.37;26.81
77288;BME280;66345;42.694;23.346;2023-03-12T07:45:45;95083.38;;;12.02;27.78
77288;BME280;66345;42.694;23.346;2023-03-12T07:48:10;95084.38;;;12.01;28.74
77288;BME280;66345;42.694;23.346;2023-03-12T07:50:36;95077.97;;;12.80;27.60
77288;BME280;66345;42.694;23.346;2023-03-12T07:53:02;95080.00;;;13.54;25.90
77288;BME280;66345;42.694;23.346;2023-03-12T07:55:29;95086.28;;;15.32;24.46
77288;BME280;66345;42.694;23.346;2023-03-12T07:57:55;95090.53;;;14.18;25.65
77288;BME280;66345;42.694;23.346;2023-03-12T08:00:23;95099.88;;;12.82;25.94
77288;BME280;66345;42.694;23.346;2023-03-12T08:02:49;95104.09;;;12.52;27.36
77288;BME280;66345;42.694;23.346;2023-03-12T08:05:14;95104.19;;;12.25;26.50
77288;BME280;66345;42.694;23.346;2023-03-12T08:07:40;95095.31;;;13.34;26.22
77288;BME280;66345;42.694;23.346;2023-03-12T08:10:06;95103.69;;;14.12;25.19
77288;BME280;66345;42.694;23.346;2023-03-12T08:12:33;95114.31;;;13.44;25.74
77288;BME280;66345;42.694;23.346;2023-03-12T08:14:59;95117.44;;;12.32;26.84
77288;BME280;66345;42.694;23.346;2023-03-12T08:17:24;95123.22;;;11.56;27.33
77288;BME280;66345;42.694;23.346;2023-03-12T08:19:50;95128.16;;;12.05;27.04
77288;BME280;66345;42.694;23.346;2023-03-12T08:22:15;95132.81;;;12.94;26.34
77288;BME280;66345;42.694;23.346;2023-03-12T08:24:41;95148.88;;;12.74;26.60
77288;BME280;66345;42.694;23.346;2023-03-12T08:27:07;95132.84;;;14.94;24.11
77288;BME280;66345;42.694;23.346;2023-03-12T08:29:32;95137.31;;;14.82;23.62
77288;BME280;66345;42.694;23.346;2023-03-12T08:31:58;95132.59;;;14.40;24.56
77288;BME280;66345;42.694;23.346;2023-03-12T08:34:24;95132.09;;;14.50;24.10
77288;BME280;66345;42.694;23.346;2023-03-12T08:36:49;95134.69;;;15.84;22.58
77288;BME280;66345;42.694;23.346;2023-03-12T08:39:15;95135.09;;;16.22;22.30
77288;BME280;66345;42.694;23.346;2023-03-12T08:41:40;95137.53;;;16.24;21.89
77288;BME280;66345;42.694;23.346;2023-03-12T08:44:06;95135.09;;;16.46;22.18
77288;BME280;66345;42.694;23.346;2023-03-12T08:46:31;95136.94;;;16.45;21.65
77288;BME280;66345;42.694;23.346;2023-03-12T08:48:57;95137.28;;;16.60;20.74
77288;BME280;66345;42.694;23.346;2023-03-12T08:51:22;95132.31;;;16.41;21.80
77288;BME280;66345;42.694;23.346;2023-03-12T08:53:48;95143.00;;;16.64;21.18
77288;BME280;66345;42.694;23.346;2023-03-12T08:56:14;95142.66;;;15.60;22.47
77288;BME280;66345;42.694;23.346;2023-03-12T08:58:39;95143.72;;;17.52;20.92
77288;BME280;66345;42.694;23.346;2023-03-12T09:01:09;95151.63;;;16.19;22.21
77288;BME280;66345;42.694;23.346;2023-03-12T09:03:35;95151.75;;;15.41;22.81
77288;BME280;66345;42.694;23.346;2023-03-12T09:06:11;95149.78;;;15.18;22.75
77288;BME280;66345;42.694;23.346;2023-03-12T09:08:42;95158.19;;;13.73;25.23
77288;BME280;66345;42.694;23.346;2023-03-12T09:11:09;95151.63;;;15.36;23.45
77288;BME280;66345;42.694;23.346;2023-03-12T09:13:34;95142.81;;;15.47;23.47
77288;BME280;66345;42.694;23.346;2023-03-12T09:16:01;95148.78;;;15.01;23.80
77288;BME280;66345;42.694;23.346;2023-03-12T09:18:31;95155.66;;;17.04;21.80
77288;BME280;66345;42.694;23.346;2023-03-12T09:20:57;95145.41;;;15.84;22.53
77288;BME280;66345;42.694;23.346;2023-03-12T09:23:23;95144.88;;;17.27;21.46
77288;BME280;66345;42.694;23.346;2023-03-12T09:25:50;95140.19;;;16.47;22.15
77288;BME280;66345;42.694;23.346;2023-03-12T09:28:15;95141.56;;;15.49;22.61
77288;BME280;66345;42.694;23.346;2023-03-12T09:30:41;95161.22;;;15.55;22.20
77288;BME280;66345;42.694;23.346;2023-03-12T09:33:07;95166.97;;;14.92;23.26
77288;BME280;66345;42.694;23.346;2023-03-12T09:35:32;95150.88;;;14.98;23.80
77288;BME280;66345;42.694;23.346;2023-03-12T09:37:58;95144.97;;;17.32;21.30
77288;BME280;66345;42.694;23.346;2023-03-12T09:40:26;95144.81;;;16.99;21.51
77288;BME280;66345;42.694;23.346;2023-03-12T09:45:24;95145.75;;;17.73;21.12
77288;BME280;66345;42.694;23.346;2023-03-12T09:47:53;95135.88;;;19.01;19.87
77288;BME280;66345;42.694;23.346;2023-03-12T09:55:21;95132.66;;;18.27;20.13
77288;BME280;66345;42.694;23.346;2023-03-12T09:57:49;95143.69;;;16.83;21.10
77288;BME280;66345;42.694;23.346;2023-03-12T10:00:18;95142.28;;;17.61;20.80
77288;BME280;66345;42.694;23.346;2023-03-12T10:02:57;95137.59;;;19.07;19.08
77288;BME280;66345;42.694;23.346;2023-03-12T10:05:51;95127.91;;;19.06;18.89
77288;BME280;66345;42.694;23.346;2023-03-12T10:14:18;95131.25;;;17.74;20.19
77288;BME280;66345;42.694;23.346;2023-03-12T10:19:50;95131.13;;;16.13;21.50
77288;BME280;66345;42.694;23.346;2023-03-12T10:22:32;95123.22;;;18.41;19.58
77288;BME280;66345;42.694;23.346;2023-03-12T10:27:51;95109.47;;;18.38;19.23
77288;BME280;66345;42.694;23.346;2023-03-12T10:30:23;95121.06;;;18.21;19.35
77288;BME280;66345;42.694;23.346;2023-03-12T10:32:53;95123.50;;;18.06;19.27
77288;BME280;66345;42.694;23.346;2023-03-12T10:35:22;95132.81;;;18.93;18.97
77288;BME280;66345;42.694;23.346;2023-03-12T10:37:51;95125.38;;;19.00;18.64
77288;BME280;66345;42.694;23.346;2023-03-12T10:40:21;95131.06;;;17.64;20.36
77288;BME280;66345;42.694;23.346;2023-03-12T10:42:47;95132.06;;;16.54;21.79
77288;BME280;66345;42.694;23.346;2023-03-12T10:45:30;95151.94;;;15.58;22.35
77288;BME280;66345;42.694;23.346;2023-03-12T10:48:04;95150.06;;;14.80;22.64
77288;BME280;66345;42.694;23.346;2023-03-12T10:50:36;95148.28;;;14.55;24.13
77288;BME280;66345;42.694;23.346;2023-03-12T10:53:23;95145.72;;;13.99;25.11
77288;BME280;66345;42.694;23.346;2023-03-12T10:56:12;95141.34;;;12.58;26.11
77288;BME280;66345;42.694;23.346;2023-03-12T10:58:43;95130.81;;;11.99;27.50
77288;BME280;66345;42.694;23.346;2023-03-12T11:01:18;95131.81;;;11.45;28.19
77288;BME280;66345;42.694;23.346;2023-03-12T11:03:44;95146.50;;;10.32;30.04
77288;BME280;66345;42.694;23.346;2023-03-12T11:06:29;95143.97;;;9.61;32.03
77288;BME280;66345;42.694;23.346;2023-03-12T11:09:21;95148.56;;;9.31;32.72
77288;BME280;66345;42.694;23.346;2023-03-12T11:11:48;95142.94;;;9.19;33.03
77288;BME280;66345;42.694;23.346;2023-03-12T11:16:42;95145.09;;;9.09;32.37
77288;BME280;66345;42.694;23.346;2023-03-12T11:19:12;95140.31;;;9.19;32.71
77288;BME280;66345;42.694;23.346;2023-03-12T11:21:38;95131.91;;;8.94;33.23
77288;BME280;66345;42.694;23.346;2023-03-12T11:24:11;95125.84;;;8.79;33.23
77288;BME280;66345;42.694;23.346;2023-03-12T11:26:58;95131.53;;;9.18;33.99
77288;BME280;66345;42.694;23.346;2023-03-12T11:32:01;95137.97;;;9.31;32.99
77288;BME280;66345;42.694;23.346;2023-03-12T11:34:33;95117.28;;;9.62;30.76
77288;BME280;66345;42.694;23.346;2023-03-12T11:46:03;95126.25;;;9.40;32.11
77288;BME280;66345;42.694;23.346;2023-03-12T11:56:43;95110.91;;;9.14;33.29
77288;BME280;66345;42.694;23.346;2023-03-12T12:02:26;95107.56;;;9.48;31.92
77288;BME280;66345;42.694;23.346;2023-03-12T12:22:07;95114.09;;;9.45;32.39
77288;BME280;66345;42.694;23.346;2023-03-12T12:24:58;95111.06;;;9.27;33.25
77288;BME280;66345;42.694;23.346;2023-03-12T12:28:18;95121.16;;;9.38;32.51
77288;BME280;66345;42.694;23.346;2023-03-12T12:31:31;95117.34;;;9.48;32.72
77288;BME280;66345;42.694;23.346;2023-03-12T12:36:23;95120.69;;;9.13;33.03
77288;BME280;66345;42.694;23.346;2023-03-12T12:39:12;95117.59;;;8.88;33.74
77288;BME280;66345;42.694;23.346;2023-03-12T12:41:48;95122.91;;;8.74;34.16
77288;BME280;66345;42.694;23.346;2023-03-12T12:44:22;95118.56;;;8.66;33.96
77288;BME280;66345;42.694;23.346;2023-03-12T12:46:58;95125.72;;;8.87;34.05
77288;BME280;66345;42.694;23.346;2023-03-12T12:49:45;95115.81;;;8.74;34.44
77288;BME280;66345;42.694;23.346;2023-03-12T12:52:17;95106.53;;;8.64;34.32
77288;BME280;66345;42.694;23.346;2023-03-12T12:55:09;95112.56;;;8.57;33.94
77288;BME280;66345;42.694;23.346;2023-03-12T12:57:57;95109.13;;;8.42;33.97
77288;BME280;66345;42.694;23.346;2023-03-12T13:02:59;95111.16;;;8.40;35.13
77288;BME280;66345;42.694;23.346;2023-03-12T13:08:03;95127.34;;;8.37;35.09
77288;BME280;66345;42.694;23.346;2023-03-12T13:13:19;95134.34;;;8.30;35.46
77288;BME280;66345;42.694;23.346;2023-03-12T13:15:45;95131.16;;;8.34;34.98
77288;BME280;66345;42.694;23.346;2023-03-12T13:18:31;95120.88;;;8.25;34.74
77288;BME280;66345;42.694;23.346;2023-03-12T13:21:12;95130.16;;;8.21;35.36
77288;BME280;66345;42.694;23.346;2023-03-12T13:23:49;95127.34;;;8.07;34.71
77288;BME280;66345;42.694;23.346;2023-03-12T13:26:26;95129.53;;;8.19;35.21
77288;BME280;66345;42.694;23.346;2023-03-12T13:28:58;95135.63;;;8.19;35.07
77288;BME280;66345;42.694;23.346;2023-03-12T13:36:49;95133.91;;;8.12;35.47
77288;BME280;66345;42.694;23.346;2023-03-12T13:39:17;95138.72;;;8.52;35.22
77288;BME280;66345;42.694;23.346;2023-03-12T13:41:47;95140.09;;;8.63;34.59
77288;BME280;66345;42.694;23.346;2023-03-12T13:54:43;95140.09;;;7.89;36.42
77288;BME280;66345;42.694;23.346;2023-03-12T13:57:38;95139.47;;;8.02;35.98
77288;BME280;66345;42.694;23.346;2023-03-12T14:00:23;95134.09;;;8.10;35.49
77288;BME280;66345;42.694;23.346;2023-03-12T14:03:44;95145.69;;;8.24;35.24
77288;BME280;66345;42.694;23.346;2023-03-12T14:06:12;95146.03;;;8.21;35.59
77288;BME280;66345;42.694;23.346;2023-03-12T14:09:18;95148.38;;;8.16;35.09
77288;BME280;66345;42.694;23.346;2023-03-12T14:15:05;95142.03;;;8.25;35.11
77288;BME280;66345;42.694;23.346;2023-03-12T14:17:35;95149.84;;;8.33;35.14
77288;BME280;66345;42.694;23.346;2023-03-12T14:20:19;95159.44;;;8.34;35.23
77288;BME280;66345;42.694;23.346;2023-03-12T14:22:51;95155.34;;;8.46;35.10
77288;BME280;66345;42.694;23.346;2023-03-12T14:25:30;95149.75;;;8.26;35.34
77288;BME280;66345;42.694;23.346;2023-03-12T14:27:56;95144.75;;;8.17;35.15
77288;BME280;66345;42.694;23.346;2023-03-12T14:30:24;95157.69;;;8.12;35.60
77288;BME280;66345;42.694;23.346;2023-03-12T14:32:56;95154.41;;;7.95;35.45
77288;BME280;66345;42.694;23.346;2023-03-12T14:35:38;95162.94;;;7.82;35.40
77288;BME280;66345;42.694;23.346;2023-03-12T14:38:12;95154.47;;;7.72;35.55
77288;BME280;66345;42.694;23.346;2023-03-12T14:40:50;95162.84;;;7.75;36.58
77288;BME280;66345;42.694;23.346;2023-03-12T14:43:23;95165.53;;;7.67;35.60
77288;BME280;66345;42.694;23.346;2023-03-12T14:45:50;95161.56;;;7.71;35.61